createdAt,value
2023-03-20T00:02:32.079Z,8.74
2023-03-20T00:07:57.570Z,8.73
2023-03-20T00:13:28.648Z,8.72
2023-03-20T00:18:53.283Z,8.69
2023-03-20T00:24:20.604Z,8.66
2023-03-20T00:29:46.205Z,8.63
2023-03-20T00:35:19.610Z,8.63
2023-03-20T00:40:45.028Z,8.61
2023-03-20T00:46:13.837Z,8.58
2023-03-20T00:51:38.611Z,8.56
2023-03-20T00:57:07.153Z,8.52
2023-03-20T01:02:32.082Z,8.49
2023-03-20T01:07:57.171Z,8.48
2023-03-20T01:13:24.813Z,8.48
2023-03-20T01:18:49.133Z,8.48
2023-03-20T01:24:13.727Z,8.49
2023-03-20T01:29:39.285Z,8.52
2023-03-20T01:35:04.442Z,8.54
2023-03-20T01:40:37.998Z,8.56
2023-03-20T01:46:18.592Z,8.56
2023-03-20T01:51:43.057Z,8.55
2023-03-20T01:57:17.589Z,8.55
2023-03-20T02:02:47.617Z,8.54
2023-03-20T02:08:37.335Z,8.53
2023-03-20T02:14:02.119Z,8.52
2023-03-20T02:19:52.600Z,8.49
2023-03-20T02:25:51.655Z,8.48
2023-03-20T02:31:56.951Z,8.45
2023-03-20T02:37:47.414Z,8.46
2023-03-20T02:43:25.732Z,8.49
2023-03-20T02:49:08.987Z,8.49
2023-03-20T02:54:44.354Z,8.47
2023-03-20T03:00:23.964Z,8.48
2023-03-20T03:05:55.024Z,8.49
2023-03-20T03:11:19.484Z,8.50
2023-03-20T03:16:46.701Z,8.51
2023-03-20T03:22:10.617Z,8.52
2023-03-20T03:27:41.492Z,8.52
2023-03-20T03:33:33.107Z,8.50
2023-03-20T03:39:19.279Z,8.49
2023-03-20T03:45:09.417Z,8.47
2023-03-20T03:50:49.059Z,8.44
2023-03-20T03:56:17.196Z,8.42
2023-03-20T04:01:44.716Z,8.41
2023-03-20T04:07:08.656Z,8.42
2023-03-20T04:12:43.663Z,8.43
2023-03-20T04:18:08.919Z,8.43
2023-03-20T04:23:35.950Z,8.43
2023-03-20T04:29:02.014Z,8.42
2023-03-20T04:34:44.298Z,8.40
2023-03-20T04:40:24.956Z,8.41
2023-03-20T04:45:49.453Z,8.41
2023-03-20T04:51:14.738Z,8.40
2023-03-20T04:56:46.208Z,8.39
2023-03-20T05:02:15.414Z,8.39
2023-03-20T05:07:39.522Z,8.38
2023-03-20T05:13:06.620Z,8.38
2023-03-20T05:18:48.407Z,8.39
2023-03-20T05:24:33.910Z,8.42
2023-03-20T05:30:14.786Z,8.46
2023-03-20T05:36:14.184Z,8.50
2023-03-20T05:41:52.293Z,8.53
2023-03-20T05:47:35.201Z,8.54
2023-03-20T05:53:19.497Z,8.55
2023-03-20T05:59:08.254Z,8.58
2023-03-20T06:04:56.414Z,8.61
2023-03-20T06:10:24.794Z,8.64
2023-03-20T06:15:48.883Z,8.66
2023-03-20T06:21:14.430Z,8.69
2023-03-20T06:26:39.359Z,8.70
2023-03-20T06:32:13.790Z,8.75
2023-03-20T06:37:38.663Z,8.79
2023-03-20T06:43:06.234Z,8.89
2023-03-20T06:48:38.573Z,8.97
2023-03-20T06:54:03.633Z,9.04
2023-03-20T06:59:28.567Z,9.13
2023-03-20T07:04:55.743Z,9.19
2023-03-20T07:10:24.021Z,9.26
2023-03-20T07:16:03.311Z,9.34
2023-03-20T07:21:30.390Z,9.45
2023-03-20T07:26:55.516Z,9.56
2023-03-20T07:32:19.764Z,9.67
2023-03-20T07:37:50.641Z,9.78
2023-03-20T07:43:18.625Z,9.93
2023-03-20T07:49:09.046Z,10.10
2023-03-20T07:54:33.321Z,10.24
2023-03-20T07:59:57.648Z,10.40
2023-03-20T08:05:21.446Z,10.61
2023-03-20T08:10:46.888Z,10.81
2023-03-20T08:16:11.190Z,11.01
2023-03-20T08:21:35.039Z,11.14
2023-03-20T08:26:59.093Z,11.27
2023-03-20T08:32:23.135Z,11.43
2023-03-20T08:37:47.227Z,11.73
2023-03-20T08:43:12.491Z,11.82
2023-03-20T08:48:37.143Z,11.99
2023-03-20T08:54:01.552Z,12.13
2023-03-20T08:59:25.553Z,12.08
2023-03-20T09:04:49.683Z,12.05
2023-03-20T09:10:13.903Z,12.19
2023-03-20T09:15:39.283Z,12.40
2023-03-20T09:21:04.203Z,12.56
2023-03-20T09:26:28.104Z,12.82
2023-03-20T09:31:54.042Z,13.01
2023-03-20T09:37:18.138Z,13.21
2023-03-20T09:42:59.191Z,13.45
2023-03-20T09:48:56.866Z,13.58
2023-03-20T09:54:52.728Z,13.74
2023-03-20T10:00:20.749Z,13.66
2023-03-20T10:06:04.805Z,13.68
2023-03-20T10:11:31.955Z,13.76
2023-03-20T10:17:05.554Z,14.08
2023-03-20T10:22:36.745Z,14.16
2023-03-20T10:28:04.531Z,14.31
2023-03-20T10:33:56.297Z,14.33
2023-03-20T10:39:36.362Z,14.48
2023-03-20T10:45:28.190Z,14.74
2023-03-20T10:50:55.892Z,15.01
2023-03-20T10:56:31.964Z,15.30
2023-03-20T11:01:56.882Z,15.50
2023-03-20T11:07:24.045Z,15.71
2023-03-20T11:12:49.901Z,15.77
2023-03-20T11:18:16.150Z,15.55
2023-03-20T11:23:41.131Z,15.24
2023-03-20T11:29:12.229Z,14.89
2023-03-20T11:34:38.353Z,14.72
2023-03-20T11:40:08.433Z,14.55
2023-03-20T11:45:38.260Z,14.30
2023-03-20T11:51:09.459Z,13.87
2023-03-20T11:56:35.853Z,12.90
2023-03-20T12:02:05.797Z,12.22
2023-03-20T12:07:38.483Z,11.87
2023-03-20T12:13:12.498Z,11.70
2023-03-20T12:18:42.361Z,11.64
2023-03-20T12:24:16.094Z,11.56
2023-03-20T12:29:50.478Z,11.40
2023-03-20T12:35:31.727Z,11.19
2023-03-20T12:41:13.569Z,10.98
2023-03-20T12:47:27.810Z,11.03
2023-03-20T12:53:09.828Z,11.33
2023-03-20T12:58:39.679Z,11.66
2023-03-20T13:04:35.832Z,11.89
2023-03-20T13:10:18.383Z,12.14
2023-03-20T13:16:09.720Z,12.36
2023-03-20T13:21:41.707Z,12.34
2023-03-20T13:27:23.626Z,12.18
2023-03-20T13:33:24.985Z,12.15
2023-03-20T13:39:01.175Z,12.31
2023-03-20T13:44:29.380Z,12.56
2023-03-20T13:50:31.569Z,12.88
2023-03-20T13:56:33.174Z,13.14
2023-03-20T14:02:34.119Z,13.18
2023-03-20T14:07:59.121Z,13.20
2023-03-20T14:13:26.085Z,13.22
2023-03-20T14:19:14.469Z,13.22
2023-03-20T14:24:40.851Z,13.15
2023-03-20T14:30:30.007Z,13.01
2023-03-20T14:36:18.954Z,12.88
2023-03-20T14:42:16.668Z,12.66
2023-03-20T14:47:52.735Z,12.49
2023-03-20T14:53:22.906Z,12.36
2023-03-20T14:58:49.550Z,12.29
2023-03-20T15:04:31.409Z,12.21
2023-03-20T15:10:00.019Z,12.09
2023-03-20T15:15:29.545Z,11.94
2023-03-20T15:20:56.808Z,11.84
2023-03-20T15:26:25.831Z,11.80
2023-03-20T15:32:12.928Z,11.75
2023-03-20T15:37:38.144Z,11.69
2023-03-20T15:43:14.164Z,11.78
2023-03-20T15:48:38.207Z,11.87
2023-03-20T15:54:08.314Z,11.82
2023-03-20T15:59:35.310Z,11.69
2023-03-20T16:05:00.096Z,11.57
2023-03-20T16:10:36.575Z,11.48
2023-03-20T16:16:02.901Z,11.28
2023-03-20T16:21:32.680Z,11.11
2023-03-20T16:26:58.809Z,11.05
2023-03-20T16:32:33.439Z,11.02
2023-03-20T16:38:01.665Z,11.00
2023-03-20T16:43:30.745Z,10.98
2023-03-20T16:48:59.466Z,10.89
2023-03-20T16:54:23.540Z,10.77
2023-03-20T16:59:48.533Z,10.68
2023-03-20T17:05:14.970Z,10.62
2023-03-20T17:10:40.942Z,10.60
2023-03-20T17:16:06.169Z,10.63
2023-03-20T17:21:30.553Z,10.57
2023-03-20T17:26:56.708Z,10.48
2023-03-20T17:32:24.356Z,10.39
2023-03-20T17:37:49.637Z,10.34
2023-03-20T17:43:15.961Z,10.33
2023-03-20T17:48:41.052Z,10.28
2023-03-20T17:54:05.873Z,10.25
2023-03-20T17:59:31.577Z,10.23
2023-03-20T18:04:55.969Z,10.23
2023-03-20T18:10:26.779Z,10.19
2023-03-20T18:15:53.919Z,10.12
2023-03-20T18:21:18.541Z,10.05
2023-03-20T18:26:44.475Z,10.00
2023-03-20T18:32:09.594Z,9.96
2023-03-20T18:37:33.715Z,9.88
2023-03-20T18:42:59.099Z,9.81
2023-03-20T18:48:25.515Z,9.73
2023-03-20T18:53:50.416Z,9.69
2023-03-20T18:59:14.801Z,9.66
2023-03-20T19:04:39.417Z,9.65
2023-03-20T19:10:03.993Z,9.63
2023-03-20T19:15:31.351Z,9.64
2023-03-20T19:20:58.402Z,9.66
2023-03-20T19:26:25.040Z,9.68
2023-03-20T19:31:49.848Z,9.65
2023-03-20T19:37:13.962Z,9.63
2023-03-20T19:42:59.861Z,9.64
2023-03-20T19:48:46.124Z,9.62
2023-03-20T19:54:14.206Z,9.53
2023-03-20T19:59:43.728Z,9.50
2023-03-20T20:05:18.366Z,9.44
2023-03-20T20:10:46.215Z,9.40
2023-03-20T20:16:10.733Z,9.41
2023-03-20T20:22:17.159Z,9.41
2023-03-20T20:27:21.933Z,9.38
2023-03-20T20:32:47.667Z,9.34
2023-03-20T20:38:44.607Z,9.31
2023-03-20T20:44:16.233Z,9.30
2023-03-20T20:49:42.208Z,9.29
2023-03-20T20:55:22.052Z,9.25
2023-03-20T21:00:54.733Z,9.22
2023-03-20T21:06:21.952Z,9.20
2023-03-20T21:11:47.197Z,9.18
2023-03-20T21:17:12.256Z,9.16
2023-03-20T21:22:38.051Z,9.16
2023-03-20T21:28:04.577Z,9.16
2023-03-20T21:33:31.941Z,9.18
2023-03-20T21:39:13.411Z,9.18
2023-03-20T21:45:34.491Z,9.20
2023-03-20T21:51:15.124Z,9.19
2023-03-20T21:56:48.979Z,9.15
2023-03-20T22:02:19.176Z,9.12
2023-03-20T22:08:18.512Z,9.06
2023-03-20T22:20:07.195Z,8.98
2023-03-20T22:25:45.918Z,8.93
2023-03-20T22:31:28.711Z,8.88
2023-03-20T22:42:52.954Z,8.84
2023-03-20T22:47:56.701Z,8.85
2023-03-20T22:53:20.628Z,8.85
2023-03-20T22:58:44.898Z,8.87
2023-03-20T23:04:09.481Z,8.87
2023-03-20T23:09:35.557Z,8.87
2023-03-20T23:15:00.032Z,8.81
2023-03-20T23:20:24.426Z,8.76
2023-03-20T23:25:48.763Z,8.79
2023-03-20T23:31:16.184Z,8.83
2023-03-20T23:36:40.439Z,8.79
2023-03-20T23:42:17.332Z,8.69
2023-03-20T23:47:46.038Z,8.60
2023-03-20T23:53:19.934Z,8.60
2023-03-20T23:58:59.464Z,8.58
